Terminal Aerodrome Forecast
Issued by NWS Twin Cities, MN

Home | Current Version | Previous Version | Text Only | Print | Product List | Glossary On
Versions: 1 2 3 4 5 6 7 8 9 10 11 12 13 14 15 16 17 18 19 20 21 22 23 24
000
FTUS43 KMPX 161700 RRA
TAFMSP
TAF
KMSP 161744Z 1618/1724 08015G22KT P6SM OVC060
     FM162000 06014G22KT 5SM -SHRA BR SCT025 OVC050
     FM170000 01015G23KT 4SM -RASN BR SCT012 OVC025
     FM170200 34014G20KT 4SM -SN BR OVC012
      TEMPO 1702/1706 1SM -SN BR BKN007
     FM170600 34012G20KT P6SM OVC012
     FM171200 34007KT P6SM OVC020
     FM171800 36009KT P6SM SCT020 OVC040=

USA.gov is the U.S. government's official web portal to all federal, state and local government web resources and services.